ROMMA est une association bénévole à but non lucratif. Votre soutien est indispensable : ADHERER à ROMMA ou FAIRE un DON

Trept - (38, Isère)

Plateau de Crémieu (265 m)   Longitude: 5° 19' 27" E   Latitude: 45° 41' 15"N Station partenaire n°94
 

Détail journalier du     <<     >>

Température Precipitation Humidité Pression Vent Dir Rafale Dir. rafale
Heure (°C) (mm) (%) (hPa) (km/h) (km/h)
01:00 18.107610166N23NNO
02:00 17.608010173NO16N
03:00 16.908410174ONO16O
04:00 16.808310174NE16NO
05:00 17.108310174NE18NE
06:00 16.708210174NNE15NE
07:00 16.208310175NNE23NO
08:00 16.308110175NE21NNE
09:00 16.907810186NNE23NNE
10:00 18.307510185NNE19NNE
11:00 21.006510188NNE24NNE
12:00 21.8059101811NNE34NE
13:00 21.2056101912NNE40NE
14:00 21.4052101911NNE32NNE
15:00 21.7046101913NNE34N
16:00 23.6043101911NNE32NNE
17:00 24.2042101812NNE35N
18:00 23.704310199NE31NNE
19:00 23.1042101912NNE31NE
20:00 21.704310199NNE29N
21:00 19.804810207NNE19NE
22:00 18.705310207NNE19NNE
23:00 18.305310206NNE19NE
minuit 16.805910204NE13NNE

Graphique du 02-09-2019

 

Serveur OMMA